sensor_id;sensor_type;location;lat;lon;timestamp;temperature;humidity
13268;DHT22;6702;47.068;15.458;2022-08-11T00:01:36;20.90;63.60
13268;DHT22;6702;47.068;15.458;2022-08-11T00:04:40;20.80;63.70
13268;DHT22;6702;47.068;15.458;2022-08-11T00:07:45;20.80;63.70
13268;DHT22;6702;47.068;15.458;2022-08-11T00:10:53;20.80;63.90
13268;DHT22;6702;47.068;15.458;2022-08-11T00:13:58;20.80;64.00
13268;DHT22;6702;47.068;15.458;2022-08-11T00:17:05;20.80;64.20
13268;DHT22;6702;47.068;15.458;2022-08-11T00:20:11;20.80;64.20
13268;DHT22;6702;47.068;15.458;2022-08-11T00:23:18;20.70;64.10
13268;DHT22;6702;47.068;15.458;2022-08-11T00:26:22;20.70;64.70
13268;DHT22;6702;47.068;15.458;2022-08-11T00:29:27;20.60;64.90
13268;DHT22;6702;47.068;15.458;2022-08-11T00:32:30;20.60;65.20
13268;DHT22;6702;47.068;15.458;2022-08-11T00:35:34;20.60;65.50
13268;DHT22;6702;47.068;15.458;2022-08-11T00:39:04;20.60;65.50
13268;DHT22;6702;47.068;15.458;2022-08-11T00:42:15;20.60;65.80
13268;DHT22;6702;47.068;15.458;2022-08-11T00:45:30;20.50;65.80
13268;DHT22;6702;47.068;15.458;2022-08-11T00:48:44;20.50;65.80
13268;DHT22;6702;47.068;15.458;2022-08-11T00:52:03;20.50;65.80
13268;DHT22;6702;47.068;15.458;2022-08-11T00:59:25;20.40;66.50
13268;DHT22;6702;47.068;15.458;2022-08-11T01:07:01;20.30;66.50
13268;DHT22;6702;47.068;15.458;2022-08-11T01:14:22;20.20;67.30
13268;DHT22;6702;47.068;15.458;2022-08-11T01:28:56;19.90;68.00
13268;DHT22;6702;47.068;15.458;2022-08-11T01:36:26;19.90;68.50
13268;DHT22;6702;47.068;15.458;2022-08-11T01:39:55;19.80;68.80
13268;DHT22;6702;47.068;15.458;2022-08-11T01:43:18;19.80;68.70
13268;DHT22;6702;47.068;15.458;2022-08-11T01:46:53;19.80;69.80
13268;DHT22;6702;47.068;15.458;2022-08-11T01:50:07;19.70;68.90
13268;DHT22;6702;47.068;15.458;2022-08-11T01:53:23;19.70;68.90
13268;DHT22;6702;47.068;15.458;2022-08-11T01:56:41;19.70;69.30
13268;DHT22;6702;47.068;15.458;2022-08-11T01:59:50;19.60;69.20
13268;DHT22;6702;47.068;15.458;2022-08-11T02:03:02;19.60;70.20
13268;DHT22;6702;47.068;15.458;2022-08-11T02:06:15;19.50;69.40
13268;DHT22;6702;47.068;15.458;2022-08-11T02:09:52;19.50;70.10
13268;DHT22;6702;47.068;15.458;2022-08-11T02:13:03;19.50;70.20
13268;DHT22;6702;47.068;15.458;2022-08-11T02:16:16;19.50;70.20
13268;DHT22;6702;47.068;15.458;2022-08-11T02:19:33;19.50;70.30
13268;DHT22;6702;47.068;15.458;2022-08-11T02:23:01;19.40;70.50
13268;DHT22;6702;47.068;15.458;2022-08-11T02:26:47;19.40;71.10
13268;DHT22;6702;47.068;15.458;2022-08-11T02:29:57;19.30;71.20
13268;DHT22;6702;47.068;15.458;2022-08-11T02:33:15;19.20;71.10
13268;DHT22;6702;47.068;15.458;2022-08-11T02:36:35;19.20;71.20
13268;DHT22;6702;47.068;15.458;2022-08-11T02:39:47;19.20;71.40
13268;DHT22;6702;47.068;15.458;2022-08-11T02:43:03;19.20;71.70
13268;DHT22;6702;47.068;15.458;2022-08-11T02:46:19;19.20;71.80
13268;DHT22;6702;47.068;15.458;2022-08-11T02:49:40;19.10;71.80
13268;DHT22;6702;47.068;15.458;2022-08-11T02:53:12;19.10;71.90
13268;DHT22;6702;47.068;15.458;2022-08-11T02:56:26;18.90;72.00
13268;DHT22;6702;47.068;15.458;2022-08-11T02:59:44;18.90;72.50
13268;DHT22;6702;47.068;15.458;2022-08-11T03:03:05;18.80;72.60
13268;DHT22;6702;47.068;15.458;2022-08-11T03:06:23;18.70;72.80
13268;DHT22;6702;47.068;15.458;2022-08-11T03:09:41;18.70;73.10
13268;DHT22;6702;47.068;15.458;2022-08-11T03:12:50;18.70;73.40
13268;DHT22;6702;47.068;15.458;2022-08-11T03:16:24;18.70;73.90
13268;DHT22;6702;47.068;15.458;2022-08-11T03:20:07;18.80;74.10
13268;DHT22;6702;47.068;15.458;2022-08-11T03:23:17;18.90;73.70
13268;DHT22;6702;47.068;15.458;2022-08-11T03:26:30;18.90;73.20
13268;DHT22;6702;47.068;15.458;2022-08-11T03:29:38;18.90;73.20
13268;DHT22;6702;47.068;15.458;2022-08-11T03:33:00;18.90;73.20
13268;DHT22;6702;47.068;15.458;2022-08-11T03:36:43;18.90;73.30
13268;DHT22;6702;47.068;15.458;2022-08-11T03:40:31;18.90;74.00
13268;DHT22;6702;47.068;15.458;2022-08-11T03:44:00;18.80;74.00
13268;DHT22;6702;47.068;15.458;2022-08-11T03:47:17;18.80;74.30
13268;DHT22;6702;47.068;15.458;2022-08-11T03:50:29;18.70;74.40
13268;DHT22;6702;47.068;15.458;2022-08-11T03:53:57;18.70;74.50
13268;DHT22;6702;47.068;15.458;2022-08-11T04:12:28;18.50;76.60
13268;DHT22;6702;47.068;15.458;2022-08-11T04:19:46;18.40;76.30
13268;DHT22;6702;47.068;15.458;2022-08-11T04:23:23;18.40;76.30
13268;DHT22;6702;47.068;15.458;2022-08-11T04:27:17;18.30;76.20
13268;DHT22;6702;47.068;15.458;2022-08-11T04:30:27;18.30;76.80
13268;DHT22;6702;47.068;15.458;2022-08-11T04:33:48;18.30;77.00
13268;DHT22;6702;47.068;15.458;2022-08-11T04:41:19;18.30;77.20
13268;DHT22;6702;47.068;15.458;2022-08-11T04:48:44;18.30;77.50
13268;DHT22;6702;47.068;15.458;2022-08-11T04:56:10;18.30;77.40
13268;DHT22;6702;47.068;15.458;2022-08-11T04:59:47;18.40;77.30
13268;DHT22;6702;47.068;15.458;2022-08-11T05:07:06;18.70;76.70
13268;DHT22;6702;47.068;15.458;2022-08-11T05:10:21;18.80;76.80
13268;DHT22;6702;47.068;15.458;2022-08-11T05:13:28;18.90;76.50
13268;DHT22;6702;47.068;15.458;2022-08-11T05:16:52;19.10;76.40
13268;DHT22;6702;47.068;15.458;2022-08-11T05:20:13;19.30;75.60
13268;DHT22;6702;47.068;15.458;2022-08-11T05:23:40;19.50;74.50
13268;DHT22;6702;47.068;15.458;2022-08-11T05:27:06;19.80;74.10
13268;DHT22;6702;47.068;15.458;2022-08-11T05:30:28;20.00;73.20
13268;DHT22;6702;47.068;15.458;2022-08-11T05:33:51;20.30;72.70
13268;DHT22;6702;47.068;15.458;2022-08-11T05:37:22;20.50;72.00
13268;DHT22;6702;47.068;15.458;2022-08-11T05:40:31;20.70;71.50
13268;DHT22;6702;47.068;15.458;2022-08-11T05:44:02;21.10;70.50
13268;DHT22;6702;47.068;15.458;2022-08-11T05:47:25;21.60;69.10
13268;DHT22;6702;47.068;15.458;2022-08-11T05:50:51;22.10;67.50
13268;DHT22;6702;47.068;15.458;2022-08-11T05:54:15;22.80;65.70
13268;DHT22;6702;47.068;15.458;2022-08-11T05:57:38;23.30;64.30
13268;DHT22;6702;47.068;15.458;2022-08-11T06:00:52;24.00;62.50
13268;DHT22;6702;47.068;15.458;2022-08-11T06:03:57;24.70;60.40
13268;DHT22;6702;47.068;15.458;2022-08-11T06:07:16;25.10;59.20
13268;DHT22;6702;47.068;15.458;2022-08-11T06:10:27;25.70;57.80
13268;DHT22;6702;47.068;15.458;2022-08-11T06:13:34;26.10;56.60
13268;DHT22;6702;47.068;15.458;2022-08-11T06:16:40;26.70;55.50
13268;DHT22;6702;47.068;15.458;2022-08-11T06:19:46;27.10;54.00
13268;DHT22;6702;47.068;15.458;2022-08-11T06:22:56;27.70;51.60
13268;DHT22;6702;47.068;15.458;2022-08-11T06:26:00;28.10;50.80
13268;DHT22;6702;47.068;15.458;2022-08-11T06:29:05;28.60;50.10
13268;DHT22;6702;47.068;15.458;2022-08-11T06:32:11;29.40;48.30
13268;DHT22;6702;47.068;15.458;2022-08-11T06:35:21;29.80;46.80
13268;DHT22;6702;47.068;15.458;2022-08-11T06:38:37;30.00;46.60
13268;DHT22;6702;47.068;15.458;2022-08-11T06:41:45;30.50;46.10
13268;DHT22;6702;47.068;15.458;2022-08-11T06:44:59;30.80;44.80
13268;DHT22;6702;47.068;15.458;2022-08-11T06:48:05;31.00;44.40
13268;DHT22;6702;47.068;15.458;2022-08-11T06:51:12;30.90;43.50
13268;DHT22;6702;47.068;15.458;2022-08-11T06:54:14;31.20;43.70
13268;DHT22;6702;47.068;15.458;2022-08-11T06:57:18;31.90;43.20
13268;DHT22;6702;47.068;15.458;2022-08-11T07:00:40;33.00;41.70
13268;DHT22;6702;47.068;15.458;2022-08-11T07:03:46;33.70;40.00
13268;DHT22;6702;47.068;15.458;2022-08-11T07:06:59;34.50;38.70
13268;DHT22;6702;47.068;15.458;2022-08-11T07:10:32;35.40;37.10
13268;DHT22;6702;47.068;15.458;2022-08-11T07:14:01;36.30;35.40
13268;DHT22;6702;47.068;15.458;2022-08-11T07:17:25;37.00;34.50
13268;DHT22;6702;47.068;15.458;2022-08-11T07:20:29;37.50;33.40
13268;DHT22;6702;47.068;15.458;2022-08-11T07:23:53;37.90;32.60
13268;DHT22;6702;47.068;15.458;2022-08-11T07:27:17;38.30;31.20
13268;DHT22;6702;47.068;15.458;2022-08-11T07:30:40;38.30;29.90
13268;DHT22;6702;47.068;15.458;2022-08-11T07:33:47;38.30;30.00
13268;DHT22;6702;47.068;15.458;2022-08-11T07:37:12;39.00;29.40
13268;DHT22;6702;47.068;15.458;2022-08-11T07:40:20;39.00;29.10
13268;DHT22;6702;47.068;15.458;2022-08-11T07:43:24;39.30;29.10
13268;DHT22;6702;47.068;15.458;2022-08-11T07:46:28;40.60;28.30
13268;DHT22;6702;47.068;15.458;2022-08-11T07:49:51;41.60;27.00
13268;DHT22;6702;47.068;15.458;2022-08-11T07:53:13;41.30;26.30
13268;DHT22;6702;47.068;15.458;2022-08-11T07:56:17;40.50;27.40
13268;DHT22;6702;47.068;15.458;2022-08-11T07:59:40;41.00;26.80
13268;DHT22;6702;47.068;15.458;2022-08-11T08:03:06;41.80;26.60
13268;DHT22;6702;47.068;15.458;2022-08-11T08:06:31;43.00;25.50
13268;DHT22;6702;47.068;15.458;2022-08-11T08:09:53;42.40;25.90
13268;DHT22;6702;47.068;15.458;2022-08-11T08:13:17;41.80;26.10
13268;DHT22;6702;47.068;15.458;2022-08-11T08:16:38;43.20;25.40
13268;DHT22;6702;47.068;15.458;2022-08-11T08:19:59;44.70;24.30
13268;DHT22;6702;47.068;15.458;2022-08-11T08:23:05;45.00;23.60
13268;DHT22;6702;47.068;15.458;2022-08-11T08:26:12;44.20;23.70
13268;DHT22;6702;47.068;15.458;2022-08-11T08:29:32;44.80;23.90
13268;DHT22;6702;47.068;15.458;2022-08-11T08:32:54;46.30;23.10
13268;DHT22;6702;47.068;15.458;2022-08-11T08:36:01;45.40;23.60
13268;DHT22;6702;47.068;15.458;2022-08-11T08:39:18;44.30;23.00
13268;DHT22;6702;47.068;15.458;2022-08-11T08:42:26;42.90;24.90
13268;DHT22;6702;47.068;15.458;2022-08-11T08:45:33;44.90;23.70
13268;DHT22;6702;47.068;15.458;2022-08-11T08:48:40;46.50;22.60
13268;DHT22;6702;47.068;15.458;2022-08-11T08:51:49;47.70;22.20
13268;DHT22;6702;47.068;15.458;2022-08-11T08:55:17;47.90;21.50
13268;DHT22;6702;47.068;15.458;2022-08-11T08:58:23;47.10;21.70
13268;DHT22;6702;47.068;15.458;2022-08-11T09:01:29;46.00;22.20
13268;DHT22;6702;47.068;15.458;2022-08-11T09:04:34;44.90;22.70
13268;DHT22;6702;47.068;15.458;2022-08-11T09:07:37;42.30;24.10
13268;DHT22;6702;47.068;15.458;2022-08-11T09:10:45;41.00;25.30
13268;DHT22;6702;47.068;15.458;2022-08-11T09:13:49;39.20;26.30
13268;DHT22;6702;47.068;15.458;2022-08-11T09:17:09;38.20;27.20
13268;DHT22;6702;47.068;15.458;2022-08-11T09:20:15;37.00;28.50
13268;DHT22;6702;47.068;15.458;2022-08-11T09:23:19;35.90;29.30
13268;DHT22;6702;47.068;15.458;2022-08-11T09:27:05;34.40;30.70
13268;DHT22;6702;47.068;15.458;2022-08-11T09:30:10;33.30;32.40
13268;DHT22;6702;47.068;15.458;2022-08-11T09:33:15;32.60;33.20
13268;DHT22;6702;47.068;15.458;2022-08-11T09:36:19;32.20;34.20
13268;DHT22;6702;47.068;15.458;2022-08-11T09:39:41;31.90;34.80
13268;DHT22;6702;47.068;15.458;2022-08-11T09:43:05;31.70;35.50
13268;DHT22;6702;47.068;15.458;2022-08-11T09:46:27;31.40;36.20
13268;DHT22;6702;47.068;15.458;2022-08-11T09:49:32;30.90;36.40
13268;DHT22;6702;47.068;15.458;2022-08-11T09:52:37;30.80;37.10
13268;DHT22;6702;47.068;15.458;2022-08-11T09:56:02;30.80;37.50
13268;DHT22;6702;47.068;15.458;2022-08-11T09:59:27;30.50;37.60
13268;DHT22;6702;47.068;15.458;2022-08-11T10:02:31;30.10;38.30
13268;DHT22;6702;47.068;15.458;2022-08-11T10:05:37;30.10;38.20
13268;DHT22;6702;47.068;15.458;2022-08-11T10:08:57;30.20;38.40
13268;DHT22;6702;47.068;15.458;2022-08-11T10:12:03;30.40;38.00
13268;DHT22;6702;47.068;15.458;2022-08-11T10:15:14;30.60;38.20
13268;DHT22;6702;47.068;15.458;2022-08-11T10:18:40;30.60;37.50
13268;DHT22;6702;47.068;15.458;2022-08-11T10:21:46;30.50;37.80
13268;DHT22;6702;47.068;15.458;2022-08-11T10:25:12;30.30;37.80
13268;DHT22;6702;47.068;15.458;2022-08-11T10:28:34;29.90;38.20
13268;DHT22;6702;47.068;15.458;2022-08-11T10:32:00;29.90;38.20
13268;DHT22;6702;47.068;15.458;2022-08-11T10:35:29;29.80;38.40
13268;DHT22;6702;47.068;15.458;2022-08-11T10:38:33;30.00;38.40
13268;DHT22;6702;47.068;15.458;2022-08-11T10:41:37;30.20;38.40
13268;DHT22;6702;47.068;15.458;2022-08-11T10:45:10;30.00;37.90
13268;DHT22;6702;47.068;15.458;2022-08-11T10:48:34;30.10;38.10
13268;DHT22;6702;47.068;15.458;2022-08-11T10:51:39;30.20;38.20
13268;DHT22;6702;47.068;15.458;2022-08-11T10:55:01;30.40;38.20
13268;DHT22;6702;47.068;15.458;2022-08-11T10:58:23;30.50;37.60
13268;DHT22;6702;47.068;15.458;2022-08-11T11:01:44;30.60;37.00
13268;DHT22;6702;47.068;15.458;2022-08-11T11:05:02;30.80;37.10
13268;DHT22;6702;47.068;15.458;2022-08-11T11:08:12;30.70;37.50
13268;DHT22;6702;47.068;15.458;2022-08-11T11:11:34;30.50;37.60
13268;DHT22;6702;47.068;15.458;2022-08-11T11:14:56;30.40;38.00
13268;DHT22;6702;47.068;15.458;2022-08-11T11:18:21;30.00;38.20
13268;DHT22;6702;47.068;15.458;2022-08-11T11:21:27;30.10;38.00
13268;DHT22;6702;47.068;15.458;2022-08-11T11:24:40;30.30;37.50
13268;DHT22;6702;47.068;15.458;2022-08-11T11:27:54;30.60;37.20
13268;DHT22;6702;47.068;15.458;2022-08-11T11:31:09;30.80;36.30
13268;DHT22;6702;47.068;15.458;2022-08-11T11:34:27;30.70;36.50
13268;DHT22;6702;47.068;15.458;2022-08-11T11:37:38;30.70;36.70
13268;DHT22;6702;47.068;15.458;2022-08-11T11:41:02;30.50;36.70
13268;DHT22;6702;47.068;15.458;2022-08-11T11:44:23;30.40;37.30
13268;DHT22;6702;47.068;15.458;2022-08-11T11:47:27;30.30;37.50
13268;DHT22;6702;47.068;15.458;2022-08-11T11:50:33;30.10;37.60
13268;DHT22;6702;47.068;15.458;2022-08-11T11:53:39;30.10;37.40
13268;DHT22;6702;47.068;15.458;2022-08-11T11:56:44;30.00;37.60
13268;DHT22;6702;47.068;15.458;2022-08-11T11:59:49;30.00;37.70
13268;DHT22;6702;47.068;15.458;2022-08-11T12:03:10;30.10;37.90
13268;DHT22;6702;47.068;15.458;2022-08-11T12:06:17;30.10;37.60
13268;DHT22;6702;47.068;15.458;2022-08-11T12:09:22;30.30;38.20
13268;DHT22;6702;47.068;15.458;2022-08-11T12:12:25;30.50;36.90
13268;DHT22;6702;47.068;15.458;2022-08-11T12:15:46;30.70;36.80
13268;DHT22;6702;47.068;15.458;2022-08-11T12:19:12;31.00;36.60
13268;DHT22;6702;47.068;15.458;2022-08-11T12:22:16;31.00;36.40
13268;DHT22;6702;47.068;15.458;2022-08-11T12:25:38;31.20;36.90
13268;DHT22;6702;47.068;15.458;2022-08-11T12:29:20;31.20;35.70
13268;DHT22;6702;47.068;15.458;2022-08-11T12:32:30;31.30;35.30
13268;DHT22;6702;47.068;15.458;2022-08-11T12:35:34;31.30;35.40
13268;DHT22;6702;47.068;15.458;2022-08-11T12:38:38;31.30;35.40
13268;DHT22;6702;47.068;15.458;2022-08-11T12:41:43;30.80;36.20
13268;DHT22;6702;47.068;15.458;2022-08-11T12:45:09;30.50;37.00
13268;DHT22;6702;47.068;15.458;2022-08-11T12:48:34;30.70;36.60
13268;DHT22;6702;47.068;15.458;2022-08-11T12:52:05;30.70;36.60
13268;DHT22;6702;47.068;15.458;2022-08-11T12:55:16;30.90;36.50
13268;DHT22;6702;47.068;15.458;2022-08-11T12:59:06;31.20;35.70
13268;DHT22;6702;47.068;15.458;2022-08-11T13:02:28;31.50;35.00
13268;DHT22;6702;47.068;15.458;2022-08-11T13:05:52;31.60;34.80
13268;DHT22;6702;47.068;15.458;2022-08-11T13:08:57;31.30;35.40
13268;DHT22;6702;47.068;15.458;2022-08-11T13:12:02;31.50;35.00
13268;DHT22;6702;47.068;15.458;2022-08-11T13:15:25;31.60;34.80
13268;DHT22;6702;47.068;15.458;2022-08-11T13:18:28;31.60;35.60
13268;DHT22;6702;47.068;15.458;2022-08-11T13:21:32;31.50;35.60
13268;DHT22;6702;47.068;15.458;2022-08-11T13:24:35;31.30;35.90
13268;DHT22;6702;47.068;15.458;2022-08-11T13:27:39;31.30;36.20
13268;DHT22;6702;47.068;15.458;2022-08-11T13:30:44;31.20;36.40
13268;DHT22;6702;47.068;15.458;2022-08-11T13:34:17;31.10;36.20
13268;DHT22;6702;47.068;15.458;2022-08-11T13:37:21;31.10;36.40
13268;DHT22;6702;47.068;15.458;2022-08-11T13:40:45;31.00;36.40
13268;DHT22;6702;47.068;15.458;2022-08-11T13:43:57;30.90;36.00
13268;DHT22;6702;47.068;15.458;2022-08-11T13:47:07;30.50;36.30
13268;DHT22;6702;47.068;15.458;2022-08-11T13:50:13;30.10;36.90
13268;DHT22;6702;47.068;15.458;2022-08-11T13:53:16;30.00;37.40
13268;DHT22;6702;47.068;15.458;2022-08-11T13:56:23;30.10;37.50
13268;DHT22;6702;47.068;15.458;2022-08-11T13:59:27;29.80;37.60
13268;DHT22;6702;47.068;15.458;2022-08-11T14:02:34;29.70;38.10
13268;DHT22;6702;47.068;15.458;2022-08-11T14:05:41;29.40;39.10
13268;DHT22;6702;47.068;15.458;2022-08-11T14:08:50;29.10;38.90
13268;DHT22;6702;47.068;15.458;2022-08-11T14:11:57;29.10;39.00
13268;DHT22;6702;47.068;15.458;2022-08-11T14:15:30;29.20;39.60
13268;DHT22;6702;47.068;15.458;2022-08-11T14:18:39;29.30;40.00
13268;DHT22;6702;47.068;15.458;2022-08-11T14:21:45;29.30;39.70
13268;DHT22;6702;47.068;15.458;2022-08-11T14:25:09;29.40;40.00
13268;DHT22;6702;47.068;15.458;2022-08-11T14:28:13;29.20;39.50
13268;DHT22;6702;47.068;15.458;2022-08-11T14:31:36;29.30;39.20
13268;DHT22;6702;47.068;15.458;2022-08-11T14:34:43;29.40;39.00
13268;DHT22;6702;47.068;15.458;2022-08-11T14:37:47;29.50;39.00
13268;DHT22;6702;47.068;15.458;2022-08-11T14:40:51;29.60;38.90
13268;DHT22;6702;47.068;15.458;2022-08-11T14:44:12;29.70;38.40
13268;DHT22;6702;47.068;15.458;2022-08-11T14:47:34;29.90;38.00
13268;DHT22;6702;47.068;15.458;2022-08-11T14:50:39;30.00;37.60
13268;DHT22;6702;47.068;15.458;2022-08-11T14:53:42;29.80;38.00
13268;DHT22;6702;47.068;15.458;2022-08-11T14:56:59;29.90;38.70
13268;DHT22;6702;47.068;15.458;2022-08-11T15:00:07;30.20;37.70
13268;DHT22;6702;47.068;15.458;2022-08-11T15:03:13;30.20;37.50
13268;DHT22;6702;47.068;15.458;2022-08-11T15:06:19;30.10;37.50
13268;DHT22;6702;47.068;15.458;2022-08-11T15:09:22;30.10;37.60
13268;DHT22;6702;47.068;15.458;2022-08-11T15:12:26;30.40;37.70
13268;DHT22;6702;47.068;15.458;2022-08-11T15:15:34;30.30;37.90
13268;DHT22;6702;47.068;15.458;2022-08-11T15:18:54;30.10;38.10
13268;DHT22;6702;47.068;15.458;2022-08-11T15:21:59;29.90;38.10
13268;DHT22;6702;47.068;15.458;2022-08-11T15:25:21;29.40;38.90
13268;DHT22;6702;47.068;15.458;2022-08-11T15:28:26;28.90;39.90
13268;DHT22;6702;47.068;15.458;2022-08-11T15:31:47;28.60;40.70
13268;DHT22;6702;47.068;15.458;2022-08-11T15:35:08;28.60;40.50
13268;DHT22;6702;47.068;15.458;2022-08-11T15:38:46;28.60;40.50
13268;DHT22;6702;47.068;15.458;2022-08-11T15:41:59;28.50;40.70
13268;DHT22;6702;47.068;15.458;2022-08-11T15:45:21;28.30;41.20
13268;DHT22;6702;47.068;15.458;2022-08-11T15:48:46;28.30;41.30
13268;DHT22;6702;47.068;15.458;2022-08-11T15:51:56;28.30;41.10
13268;DHT22;6702;47.068;15.458;2022-08-11T15:55:06;28.10;41.60
13268;DHT22;6702;47.068;15.458;2022-08-11T15:58:11;28.00;41.70
13268;DHT22;6702;47.068;15.458;2022-08-11T16:01:33;27.70;42.80
13268;DHT22;6702;47.068;15.458;2022-08-11T16:04:55;27.50;42.80
13268;DHT22;6702;47.068;15.458;2022-08-11T16:08:00;27.80;42.90
13268;DHT22;6702;47.068;15.458;2022-08-11T16:11:06;28.00;42.70
13268;DHT22;6702;47.068;15.458;2022-08-11T16:14:11;28.20;41.90
13268;DHT22;6702;47.068;15.458;2022-08-11T16:17:37;28.30;41.80
13268;DHT22;6702;47.068;15.458;2022-08-11T16:20:45;28.20;41.90
13268;DHT22;6702;47.068;15.458;2022-08-11T16:23:51;28.30;41.90
13268;DHT22;6702;47.068;15.458;2022-08-11T16:26:57;28.30;41.90
13268;DHT22;6702;47.068;15.458;2022-08-11T16:30:13;28.00;41.90
13268;DHT22;6702;47.068;15.458;2022-08-11T16:33:17;27.90;41.80
13268;DHT22;6702;47.068;15.458;2022-08-11T16:36:43;27.70;42.00
13268;DHT22;6702;47.068;15.458;2022-08-11T16:40:05;27.60;42.20
13268;DHT22;6702;47.068;15.458;2022-08-11T16:43:14;27.50;42.10
13268;DHT22;6702;47.068;15.458;2022-08-11T16:46:36;27.40;42.40
13268;DHT22;6702;47.068;15.458;2022-08-11T16:49:57;27.20;42.90
13268;DHT22;6702;47.068;15.458;2022-08-11T16:53:01;27.20;43.10
13268;DHT22;6702;47.068;15.458;2022-08-11T16:56:06;27.20;43.20
13268;DHT22;6702;47.068;15.458;2022-08-11T16:59:15;27.10;43.50
13268;DHT22;6702;47.068;15.458;2022-08-11T17:02:21;27.00;43.80
13268;DHT22;6702;47.068;15.458;2022-08-11T17:05:44;27.10;43.80
13268;DHT22;6702;47.068;15.458;2022-08-11T17:09:08;27.10;43.70
13268;DHT22;6702;47.068;15.458;2022-08-11T17:12:34;27.10;43.90
13268;DHT22;6702;47.068;15.458;2022-08-11T17:16:00;26.80;43.90
13268;DHT22;6702;47.068;15.458;2022-08-11T17:19:13;26.70;44.20
13268;DHT22;6702;47.068;15.458;2022-08-11T17:22:18;26.60;44.30
13268;DHT22;6702;47.068;15.458;2022-08-11T17:25:40;26.60;44.30
13268;DHT22;6702;47.068;15.458;2022-08-11T17:29:05;26.30;44.80
13268;DHT22;6702;47.068;15.458;2022-08-11T17:32:13;26.10;45.10
13268;DHT22;6702;47.068;15.458;2022-08-11T17:35:55;26.00;45.30
13268;DHT22;6702;47.068;15.458;2022-08-11T17:38:58;26.10;45.40
13268;DHT22;6702;47.068;15.458;2022-08-11T17:42:02;26.10;45.60
13268;DHT22;6702;47.068;15.458;2022-08-11T17:45:23;26.10;45.80
13268;DHT22;6702;47.068;15.458;2022-08-11T17:48:46;26.10;45.70
13268;DHT22;6702;47.068;15.458;2022-08-11T17:51:49;26.10;45.80
13268;DHT22;6702;47.068;15.458;2022-08-11T17:55:10;26.20;46.10
13268;DHT22;6702;47.068;15.458;2022-08-11T17:58:52;26.20;46.30
13268;DHT22;6702;47.068;15.458;2022-08-11T18:02:14;26.20;46.40
13268;DHT22;6702;47.068;15.458;2022-08-11T18:05:40;26.10;46.50
13268;DHT22;6702;47.068;15.458;2022-08-11T18:08:46;26.10;46.70
13268;DHT22;6702;47.068;15.458;2022-08-11T18:12:08;26.00;46.60
13268;DHT22;6702;47.068;15.458;2022-08-11T18:15:29;26.00;46.70
13268;DHT22;6702;47.068;15.458;2022-08-11T18:18:56;25.90;47.00
13268;DHT22;6702;47.068;15.458;2022-08-11T18:22:20;25.90;47.10
13268;DHT22;6702;47.068;15.458;2022-08-11T18:25:44;25.90;46.90
13268;DHT22;6702;47.068;15.458;2022-08-11T18:29:09;25.70;46.80
13268;DHT22;6702;47.068;15.458;2022-08-11T18:32:31;25.60;46.70
13268;DHT22;6702;47.068;15.458;2022-08-11T18:36:12;25.60;46.70
13268;DHT22;6702;47.068;15.458;2022-08-11T18:39:41;25.50;46.80
13268;DHT22;6702;47.068;15.458;2022-08-11T18:43:06;25.50;46.50
13268;DHT22;6702;47.068;15.458;2022-08-11T18:46:32;25.50;46.60
13268;DHT22;6702;47.068;15.458;2022-08-11T18:49:58;25.40;46.40
13268;DHT22;6702;47.068;15.458;2022-08-11T18:53:41;25.40;46.50
13268;DHT22;6702;47.068;15.458;2022-08-11T18:57:05;25.30;46.90
13268;DHT22;6702;47.068;15.458;2022-08-11T19:00:28;25.20;46.80
13268;DHT22;6702;47.068;15.458;2022-08-11T19:03:52;25.20;46.70
13268;DHT22;6702;47.068;15.458;2022-08-11T19:07:20;25.10;47.10
13268;DHT22;6702;47.068;15.458;2022-08-11T19:10:42;25.00;47.10
13268;DHT22;6702;47.068;15.458;2022-08-11T19:14:06;25.10;47.20
13268;DHT22;6702;47.068;15.458;2022-08-11T19:17:30;25.10;47.10
13268;DHT22;6702;47.068;15.458;2022-08-11T19:20:52;25.10;47.20
13268;DHT22;6702;47.068;15.458;2022-08-11T19:24:15;25.00;47.30
13268;DHT22;6702;47.068;15.458;2022-08-11T19:27:37;25.00;47.40
13268;DHT22;6702;47.068;15.458;2022-08-11T19:31:00;25.00;47.50
13268;DHT22;6702;47.068;15.458;2022-08-11T19:34:23;25.00;47.40
13268;DHT22;6702;47.068;15.458;2022-08-11T19:37:44;25.00;47.60
13268;DHT22;6702;47.068;15.458;2022-08-11T19:41:05;24.80;47.30
13268;DHT22;6702;47.068;15.458;2022-08-11T19:44:46;24.80;47.50
13268;DHT22;6702;47.068;15.458;2022-08-11T19:48:09;24.80;47.20
13268;DHT22;6702;47.068;15.458;2022-08-11T19:51:33;24.80;46.90
13268;DHT22;6702;47.068;15.458;2022-08-11T19:54:56;24.80;46.70
13268;DHT22;6702;47.068;15.458;2022-08-11T19:58:17;24.80;46.80
13268;DHT22;6702;47.068;15.458;2022-08-11T20:01:39;24.80;46.70
13268;DHT22;6702;47.068;15.458;2022-08-11T20:05:16;24.80;46.60
13268;DHT22;6702;47.068;15.458;2022-08-11T20:08:40;24.80;46.80
13268;DHT22;6702;47.068;15.458;2022-08-11T20:12:02;24.70;47.10
13268;DHT22;6702;47.068;15.458;2022-08-11T20:15:25;24.70;47.10
13268;DHT22;6702;47.068;15.458;2022-08-11T20:18:49;24.70;47.10
13268;DHT22;6702;47.068;15.458;2022-08-11T20:22:13;24.70;47.20
13268;DHT22;6702;47.068;15.458;2022-08-11T20:25:36;24.70;47.10
13268;DHT22;6702;47.068;15.458;2022-08-11T20:29:15;24.70;47.30
13268;DHT22;6702;47.068;15.458;2022-08-11T20:32:46;24.70;47.30
13268;DHT22;6702;47.068;15.458;2022-08-11T20:36:07;24.70;47.10
13268;DHT22;6702;47.068;15.458;2022-08-11T20:39:32;24.60;47.00
13268;DHT22;6702;47.068;15.458;2022-08-11T20:42:54;24.60;46.60
13268;DHT22;6702;47.068;15.458;2022-08-11T20:46:38;24.60;46.50
13268;DHT22;6702;47.068;15.458;2022-08-11T20:50:00;24.50;46.20
13268;DHT22;6702;47.068;15.458;2022-08-11T20:53:23;24.50;46.10
13268;DHT22;6702;47.068;15.458;2022-08-11T20:56:48;24.50;45.90
13268;DHT22;6702;47.068;15.458;2022-08-11T21:00:13;24.50;46.10
13268;DHT22;6702;47.068;15.458;2022-08-11T21:03:54;24.40;46.00
13268;DHT22;6702;47.068;15.458;2022-08-11T21:07:21;24.40;46.00
13268;DHT22;6702;47.068;15.458;2022-08-11T21:10:44;24.50;46.10
13268;DHT22;6702;47.068;15.458;2022-08-11T21:14:11;24.50;46.00
13268;DHT22;6702;47.068;15.458;2022-08-11T21:17:33;24.40;46.10
13268;DHT22;6702;47.068;15.458;2022-08-11T21:21:10;24.50;46.40
13268;DHT22;6702;47.068;15.458;2022-08-11T21:24:47;24.40;46.40
13268;DHT22;6702;47.068;15.458;2022-08-11T21:28:11;24.40;46.70
13268;DHT22;6702;47.068;15.458;2022-08-11T21:31:34;24.30;46.80
13268;DHT22;6702;47.068;15.458;2022-08-11T21:34:56;24.20;46.90
13268;DHT22;6702;47.068;15.458;2022-08-11T21:38:17;24.20;47.00
13268;DHT22;6702;47.068;15.458;2022-08-11T21:41:38;24.20;47.20
13268;DHT22;6702;47.068;15.458;2022-08-11T21:45:01;24.10;47.40
13268;DHT22;6702;47.068;15.458;2022-08-11T21:48:24;24.10;47.40